Time;durP1;ratioP1;P1;durP2;ratioP2;P2;SDS_P1;SDS_P2;PMS_P1;PMS_P2;Temp;Humidity;BMP_temperature;BMP_pressure;BME280_temperature;BME280_humidity;BME280_pressure;Samples;Min_cycle;Max_cycle;Signal;HPM_P1;HPM_P2
2021/03/14 00:00:23;;;;;;;11.43;11.03;;;5.00;99.90;;;;;;5112462;28;20450;-77
2021/03/14 00:02:49;;;;;;;10.93;10.47;;;5.00;99.90;;;;;;5112834;28;21169;-77
2021/03/14 00:05:16;;;;;;;11.60;11.20;;;5.00;99.90;;;;;;5112721;28;20514;-76
2021/03/14 00:07:43;;;;;;;11.53;11.13;;;5.10;99.90;;;;;;5112735;28;20846;-78
2021/03/14 00:10:11;;;;;;;12.20;11.80;;;5.20;99.90;;;;;;5112297;28;21005;-77
2021/03/14 00:12:37;;;;;;;12.00;11.60;;;5.20;99.90;;;;;;5112550;28;20828;-77
2021/03/14 00:15:04;;;;;;;11.50;11.10;;;5.30;99.90;;;;;;5112546;28;20461;-76
2021/03/14 00:17:30;;;;;;;11.90;11.50;;;5.30;99.90;;;;;;5112496;28;20463;-75
2021/03/14 00:19:56;;;;;;;11.40;11.00;;;5.30;99.90;;;;;;5112437;28;20954;-73
2021/03/14 00:22:24;;;;;;;11.47;11.07;;;5.30;99.90;;;;;;5111932;28;20476;-73
2021/03/14 00:24:50;;;;;;;12.23;11.83;;;5.40;99.90;;;;;;5112201;28;20453;-73
2021/03/14 00:27:16;;;;;;;12.80;12.20;;;5.40;99.90;;;;;;5112347;28;20459;-75
2021/03/14 00:29:42;;;;;;;13.20;12.70;;;5.40;99.90;;;;;;5112329;28;20486;-75
2021/03/14 00:32:09;;;;;;;12.63;12.13;;;5.40;99.90;;;;;;5112057;28;20560;-74
2021/03/14 00:34:35;;;;;;;23.90;23.00;;;5.50;99.90;;;;;;5111906;28;20441;-72
2021/03/14 00:37:01;;;;;;;25.10;24.20;;;5.50;99.90;;;;;;5111902;28;20472;-72
2021/03/14 00:39:28;;;;;;;26.10;24.80;;;5.50;99.90;;;;;;5112122;28;20514;-73
2021/03/14 00:41:54;;;;;;;25.83;24.93;;;5.40;99.90;;;;;;5121126;27;20955;-73
2021/03/14 00:44:21;;;;;;;25.67;24.67;;;5.40;99.90;;;;;;5132559;27;20511;-73
2021/03/14 00:46:47;;;;;;;25.20;24.30;;;5.40;99.90;;;;;;5132412;27;20949;-74
2021/03/14 00:49:16;;;;;;;25.00;24.10;;;5.30;99.90;;;;;;5132583;27;20442;-74
2021/03/14 00:51:43;;;;;;;24.97;24.07;;;5.20;99.90;;;;;;5132347;27;20515;-73
2021/03/14 00:54:09;;;;;;;25.20;24.30;;;5.20;99.90;;;;;;5132192;27;20446;-73
2021/03/14 00:56:36;;;;;;;25.47;24.47;;;5.20;99.90;;;;;;5131645;27;20462;-74
2021/03/14 00:59:03;;;;;;;24.90;23.90;;;5.20;99.90;;;;;;5132249;27;20465;-74
2021/03/14 01:01:29;;;;;;;25.63;24.73;;;5.20;99.90;;;;;;5132327;27;20454;-74
2021/03/14 01:03:55;;;;;;;26.47;25.47;;;5.10;99.90;;;;;;5132119;27;20473;-73
2021/03/14 01:06:21;;;;;;;25.83;24.83;;;5.10;99.90;;;;;;5132128;27;20453;-73
2021/03/14 01:08:48;;;;;;;25.73;24.77;;;5.00;99.90;;;;;;5131768;27;20483;-74
2021/03/14 01:11:14;;;;;;;24.20;23.40;;;5.00;99.90;;;;;;5132075;28;20460;-74
2021/03/14 01:13:41;;;;;;;23.30;22.47;;;5.00;99.90;;;;;;5131974;27;20472;-74
2021/03/14 01:16:08;;;;;;;26.37;25.37;;;4.90;99.90;;;;;;5131816;27;20461;-74
2021/03/14 01:18:34;;;;;;;24.17;23.37;;;4.90;99.90;;;;;;5131701;27;20898;-73
2021/03/14 01:21:00;;;;;;;23.97;23.17;;;4.80;99.90;;;;;;5131672;27;20479;-72
2021/03/14 01:23:27;;;;;;;22.70;21.90;;;4.90;99.90;;;;;;5132052;28;20459;-74
2021/03/14 01:25:53;;;;;;;22.60;21.80;;;4.90;99.90;;;;;;5131921;27;20976;-73
2021/03/14 01:28:19;;;;;;;22.10;21.30;;;4.80;99.90;;;;;;5131600;27;21158;-73
2021/03/14 01:30:46;;;;;;;20.67;19.97;;;4.80;99.90;;;;;;5131761;27;20454;-73
2021/03/14 01:33:12;;;;;;;20.07;19.37;;;4.70;99.90;;;;;;5131788;28;20472;-73
2021/03/14 01:35:39;;;;;;;21.10;20.40;;;4.80;99.90;;;;;;5131565;28;20456;-72
2021/03/14 01:38:05;;;;;;;22.00;21.20;;;4.80;99.90;;;;;;5131472;27;20454;-73
2021/03/14 01:40:31;;;;;;;21.30;20.60;;;4.90;99.90;;;;;;5131835;27;20786;-73
2021/03/14 01:42:58;;;;;;;22.27;21.47;;;4.90;99.90;;;;;;5113504;27;20471;-72
2021/03/14 01:45:25;;;;;;;21.90;21.10;;;4.90;99.90;;;;;;5111097;28;20506;-72
2021/03/14 01:47:53;;;;;;;22.37;21.57;;;4.90;99.90;;;;;;5111087;28;20978;-72
2021/03/14 01:50:21;;;;;;;23.10;22.30;;;5.00;99.90;;;;;;5110788;28;20453;-72
2021/03/14 01:52:48;;;;;;;22.67;21.87;;;5.00;99.90;;;;;;5111071;28;20483;-72
2021/03/14 01:55:16;;;;;;;21.90;21.13;;;4.90;99.90;;;;;;5110896;28;20446;-72
2021/03/14 01:57:43;;;;;;;22.23;21.53;;;4.80;99.90;;;;;;5111268;28;20452;-73
2021/03/14 02:00:11;;;;;;;22.00;21.30;;;4.80;99.90;;;;;;5111154;28;20845;-73
2021/03/14 02:02:38;;;;;;;23.10;22.30;;;4.90;99.90;;;;;;5111129;28;20577;-73
2021/03/14 02:05:08;;;;;;;22.07;21.37;;;4.80;99.90;;;;;;5110757;28;20953;-72
2021/03/14 02:07:34;;;;;;;21.80;21.10;;;4.90;99.90;;;;;;5113030;28;20510;-73
2021/03/14 02:10:02;;;;;;;21.73;20.93;;;4.90;99.90;;;;;;5114507;28;20443;-73
2021/03/14 02:12:33;;;;;;;21.80;21.07;;;5.00;99.90;;;;;;5114628;28;20851;-72
2021/03/14 02:15:02;;;;;;;22.50;21.70;;;4.90;99.90;;;;;;5114731;28;20449;-73
2021/03/14 02:17:31;;;;;;;23.13;22.33;;;4.80;99.90;;;;;;5114558;28;20472;-71
2021/03/14 02:20:07;;;;;;;24.00;23.10;;;4.80;99.90;;;;;;5114720;28;20445;-72
2021/03/14 02:22:34;;;;;;;23.43;22.53;;;4.80;99.90;;;;;;5114359;28;20834;-73
2021/03/14 02:25:06;;;;;;;22.67;21.87;;;4.90;99.90;;;;;;5114272;28;20450;-73
2021/03/14 02:27:33;;;;;;;23.00;22.10;;;4.80;99.90;;;;;;5114425;28;20517;-72
2021/03/14 02:30:00;;;;;;;21.77;21.07;;;4.80;99.90;;;;;;5114446;28;20461;-73
2021/03/14 02:32:27;;;;;;;23.50;22.40;;;4.80;99.90;;;;;;5114092;28;20822;-73
2021/03/14 02:34:56;;;;;;;22.53;21.63;;;4.70;99.90;;;;;;5114227;28;20445;-73
2021/03/14 02:37:23;;;;;;;21.87;21.17;;;4.70;99.90;;;;;;5113964;28;20494;-74
2021/03/14 02:39:54;;;;;;;22.90;22.00;;;4.70;99.90;;;;;;5114050;28;20446;-73
2021/03/14 02:42:21;;;;;;;21.83;21.03;;;4.70;99.90;;;;;;5126727;27;20583;-73
2021/03/14 02:44:50;;;;;;;21.73;21.03;;;4.60;99.90;;;;;;5134197;27;20977;-72
2021/03/14 02:47:19;;;;;;;21.73;21.00;;;4.60;99.90;;;;;;5134368;27;20441;-74
2021/03/14 02:49:48;;;;;;;22.33;21.53;;;4.70;99.90;;;;;;5134416;27;20453;-73
2021/03/14 02:52:15;;;;;;;22.90;22.00;;;4.60;99.90;;;;;;5134423;27;21080;-73
2021/03/14 02:54:42;;;;;;;23.00;22.20;;;4.60;99.90;;;;;;5134183;27;20456;-72
2021/03/14 02:57:09;;;;;;;22.10;21.30;;;4.70;99.90;;;;;;5134175;27;20462;-73
2021/03/14 02:59:36;;;;;;;22.57;21.77;;;4.70;99.90;;;;;;5134396;27;21006;-73
2021/03/14 03:02:04;;;;;;;23.53;22.57;;;4.60;99.90;;;;;;5134104;27;20461;-73
2021/03/14 03:04:31;;;;;;;23.50;22.50;;;4.60;99.90;;;;;;5134255;27;20442;-72
2021/03/14 03:06:59;;;;;;;23.80;22.90;;;4.60;99.90;;;;;;5133997;27;20820;-73
2021/03/14 03:09:26;;;;;;;23.47;22.57;;;4.50;99.90;;;;;;5133937;27;20440;-73
2021/03/14 03:11:54;;;;;;;22.80;22.00;;;4.60;99.90;;;;;;5133968;27;20532;-73
2021/03/14 03:14:23;;;;;;;22.97;22.17;;;4.60;99.90;;;;;;5133957;27;20457;-73
2021/03/14 03:16:52;;;;;;;24.27;23.27;;;4.70;99.90;;;;;;5133952;27;20983;-73
2021/03/14 03:19:21;;;;;;;24.63;23.73;;;4.70;99.90;;;;;;5132659;27;20773;-74
2021/03/14 03:21:48;;;;;;;24.20;23.20;;;4.70;99.90;;;;;;5133619;27;20475;-73
2021/03/14 03:24:15;;;;;;;24.67;23.77;;;4.70;99.90;;;;;;5133975;27;20451;-73
2021/03/14 03:26:44;;;;;;;24.13;23.23;;;4.60;99.90;;;;;;5133797;27;20978;-73
2021/03/14 03:29:11;;;;;;;25.00;24.10;;;4.60;99.90;;;;;;5133422;27;20451;-73
2021/03/14 03:31:37;;;;;;;24.53;23.63;;;4.60;99.90;;;;;;5133591;27;20459;-72
2021/03/14 03:34:04;;;;;;;24.63;23.73;;;4.60;99.90;;;;;;5133461;27;20452;-72
2021/03/14 03:36:31;;;;;;;24.87;23.90;;;4.60;99.90;;;;;;5133615;27;20522;-72
2021/03/14 03:38:57;;;;;;;23.93;23.10;;;4.50;99.90;;;;;;5133353;27;20449;-72
2021/03/14 03:41:27;;;;;;;23.87;22.97;;;4.50;99.90;;;;;;5128733;27;20796;-72
2021/03/14 03:43:56;;;;;;;23.63;22.83;;;4.60;99.90;;;;;;5112592;28;20481;-72
2021/03/14 03:46:23;;;;;;;23.87;22.97;;;4.50;99.90;;;;;;5112708;28;20454;-72
2021/03/14 03:48:54;;;;;;;24.20;23.30;;;4.50;99.90;;;;;;5112449;28;20454;-72
2021/03/14 03:51:22;;;;;;;24.00;23.10;;;4.50;99.90;;;;;;5112578;28;20497;-73
2021/03/14 03:53:49;;;;;;;24.07;23.17;;;4.50;99.90;;;;;;5112469;28;20480;-72
2021/03/14 03:56:16;;;;;;;23.43;22.53;;;4.50;99.90;;;;;;5112969;28;20455;-71
2021/03/14 03:58:44;;;;;;;23.97;23.17;;;4.60;99.90;;;;;;5112527;28;20500;-72
2021/03/14 04:01:12;;;;;;;24.77;23.57;;;4.60;99.90;;;;;;5112515;28;20482;-72
2021/03/14 04:03:41;;;;;;;23.17;22.37;;;4.60;99.90;;;;;;5112338;28;20452;-73
2021/03/14 04:06:08;;;;;;;24.43;23.43;;;4.60;99.90;;;;;;5112351;28;20478;-72
2021/03/14 04:08:36;;;;;;;25.07;24.17;;;4.60;99.90;;;;;;5112296;28;20562;-73
2021/03/14 04:11:07;;;;;;;22.17;21.17;;;4.50;99.90;;;;;;5112196;28;20937;-73
2021/03/14 04:13:35;;;;;;;23.50;22.67;;;4.60;99.90;;;;;;5112260;28;20605;-73
2021/03/14 04:16:02;;;;;;;23.30;22.50;;;4.50;99.90;;;;;;5112341;28;20482;-72
2021/03/14 04:18:30;;;;;;;23.53;22.70;;;4.50;99.90;;;;;;5112152;28;20510;-72
2021/03/14 04:20:58;;;;;;;23.97;23.00;;;4.40;99.90;;;;;;5112043;28;20506;-72
2021/03/14 04:23:27;;;;;;;24.27;23.37;;;4.40;99.90;;;;;;5112292;28;20443;-73
2021/03/14 04:25:57;;;;;;;23.40;22.50;;;4.40;99.90;;;;;;5112139;28;20806;-73
2021/03/14 04:28:27;;;;;;;22.53;21.73;;;4.30;99.90;;;;;;5111931;28;20460;-72
2021/03/14 04:30:54;;;;;;;22.83;22.03;;;4.30;99.90;;;;;;5111946;28;20461;-73
2021/03/14 04:33:22;;;;;;;23.70;22.80;;;4.40;99.90;;;;;;5112087;28;20480;-73
2021/03/14 04:35:50;;;;;;;23.57;22.70;;;4.30;99.90;;;;;;5111829;28;20463;-73
2021/03/14 04:38:18;;;;;;;23.00;22.20;;;4.30;99.90;;;;;;5111767;28;20454;-73
2021/03/14 04:40:45;;;;;;;22.33;21.43;;;4.40;99.90;;;;;;5112082;28;20454;-72
2021/03/14 04:43:13;;;;;;;22.60;21.80;;;4.40;99.90;;;;;;5131937;27;21006;-73
2021/03/14 04:45:40;;;;;;;23.90;23.00;;;4.30;99.90;;;;;;5132066;27;20441;-72
2021/03/14 04:48:07;;;;;;;23.60;22.70;;;4.30;99.90;;;;;;5132036;27;20479;-71
2021/03/14 04:50:33;;;;;;;25.07;24.07;;;4.30;99.90;;;;;;5131891;27;20444;-72
2021/03/14 04:53:02;;;;;;;25.00;24.10;;;4.40;99.90;;;;;;5131970;27;20480;-72
2021/03/14 04:55:31;;;;;;;25.07;23.97;;;4.30;99.90;;;;;;5132026;27;20442;-73
2021/03/14 04:57:59;;;;;;;25.80;24.70;;;4.40;99.90;;;;;;5132022;27;20452;-72
2021/03/14 05:00:27;;;;;;;25.60;24.50;;;4.30;99.90;;;;;;5132065;27;20949;-72
2021/03/14 05:02:58;;;;;;;23.60;22.80;;;4.40;99.90;;;;;;5131815;27;20456;-72
2021/03/14 05:05:24;;;;;;;24.27;23.37;;;4.40;99.90;;;;;;5132020;27;20454;-77
2021/03/14 05:07:52;;;;;;;24.43;23.43;;;4.40;99.90;;;;;;5131784;27;20460;-73
2021/03/14 05:10:20;;;;;;;23.80;23.00;;;4.30;99.90;;;;;;5131674;27;21029;-73
2021/03/14 05:12:48;;;;;;;24.03;22.77;;;4.30;99.90;;;;;;5131941;27;20476;-73
2021/03/14 05:15:16;;;;;;;23.33;22.20;;;4.30;99.90;;;;;;5132054;28;20480;-72
2021/03/14 05:17:43;;;;;;;24.20;23.30;;;4.30;99.90;;;;;;5131808;27;20441;-72
2021/03/14 05:20:13;;;;;;;23.43;22.53;;;4.20;99.90;;;;;;5131522;27;20452;-73
2021/03/14 05:22:41;;;;;;;24.07;23.17;;;4.20;99.90;;;;;;5131621;27;20522;-74
2021/03/14 05:25:09;;;;;;;24.17;23.17;;;4.20;99.90;;;;;;5131776;28;20440;-73
2021/03/14 05:27:36;;;;;;;24.90;23.73;;;4.10;99.90;;;;;;5131734;27;21238;-74
2021/03/14 05:30:04;;;;;;;25.03;23.93;;;4.20;99.90;;;;;;5131628;27;20445;-74
2021/03/14 05:32:31;;;;;;;24.63;23.73;;;4.20;99.90;;;;;;5131619;27;20580;-74
2021/03/14 05:34:58;;;;;;;24.30;23.30;;;4.10;99.90;;;;;;5131598;27;20444;-74
2021/03/14 05:37:25;;;;;;;24.50;23.40;;;4.10;99.90;;;;;;5131871;27;20504;-74
2021/03/14 05:39:51;;;;;;;23.10;22.20;;;4.10;99.90;;;;;;5131617;27;20448;-74
2021/03/14 05:42:18;;;;;;;23.37;22.37;;;4.10;99.90;;;;;;5121076;27;20434;-73
2021/03/14 05:44:46;;;;;;;26.03;24.40;;;4.00;99.90;;;;;;5115286;28;20454;-74
2021/03/14 05:47:12;;;;;;;23.10;22.20;;;4.10;99.90;;;;;;5115370;28;20441;-73
2021/03/14 05:49:38;;;;;;;22.60;21.80;;;4.10;99.90;;;;;;5115004;28;20811;-74
2021/03/14 05:52:06;;;;;;;21.87;20.90;;;4.10;99.90;;;;;;5114827;28;20477;-74
2021/03/14 05:54:34;;;;;;;22.00;21.00;;;4.00;99.90;;;;;;5114736;28;20449;-73
2021/03/14 05:57:02;;;;;;;21.27;20.37;;;4.00;99.90;;;;;;5114992;28;20451;-73
2021/03/14 05:59:29;;;;;;;21.70;20.90;;;4.10;99.90;;;;;;5114969;28;20445;-73
2021/03/14 06:01:57;;;;;;;20.53;19.83;;;4.10;99.90;;;;;;5114840;28;20945;-73
2021/03/14 06:04:25;;;;;;;20.10;19.40;;;4.10;99.90;;;;;;5114685;28;20458;-74
2021/03/14 06:06:51;;;;;;;19.20;18.50;;;4.20;99.90;;;;;;5114769;28;20445;-74
2021/03/14 06:09:17;;;;;;;18.80;18.07;;;4.20;99.90;;;;;;5114501;28;21245;-73
2021/03/14 06:11:45;;;;;;;19.07;17.87;;;4.30;99.90;;;;;;5114576;28;20441;-74
2021/03/14 06:14:11;;;;;;;18.37;17.67;;;4.30;99.90;;;;;;5114825;28;20869;-73
2021/03/14 06:16:38;;;;;;;17.80;16.90;;;4.40;99.90;;;;;;5114469;28;20933;-73
2021/03/14 06:19:05;;;;;;;16.00;15.50;;;4.50;99.90;;;;;;5114398;28;20757;-73
2021/03/14 06:21:32;;;;;;;15.70;15.10;;;4.50;99.90;;;;;;5114242;28;20488;-74
2021/03/14 06:24:00;;;;;;;14.23;13.43;;;4.60;99.90;;;;;;5114377;28;20448;-74
2021/03/14 06:26:35;;;;;;;14.07;13.67;;;4.60;99.90;;;;;;5114621;28;20502;-73
2021/03/14 06:29:22;;;;;;;15.00;14.30;;;4.60;99.90;;;;;;5114239;28;20449;-73
2021/03/14 06:31:49;;;;;;;14.50;13.80;;;4.70;99.90;;;;;;5114097;28;20441;-73
2021/03/14 06:34:24;;;;;;;13.73;13.00;;;4.90;99.90;;;;;;5114268;28;20453;-74
2021/03/14 06:36:51;;;;;;;14.70;14.20;;;5.00;99.90;;;;;;5114010;28;20472;-74
2021/03/14 06:39:22;;;;;;;13.80;13.23;;;5.00;99.90;;;;;;5113913;28;20472;-74
2021/03/14 06:41:48;;;;;;;13.73;13.13;;;5.10;99.90;;;;;;5122244;27;20450;-75
2021/03/14 06:44:23;;;;;;;13.00;12.50;;;5.10;99.90;;;;;;5134406;27;20442;-75
2021/03/14 06:46:49;;;;;;;13.70;12.77;;;5.20;99.90;;;;;;5134424;27;20446;-74
2021/03/14 06:49:17;;;;;;;11.27;10.77;;;5.30;99.90;;;;;;5134819;27;20451;-75
2021/03/14 06:51:45;;;;;;;12.10;11.33;;;5.50;99.90;;;;;;5134315;27;20496;-75
2021/03/14 06:54:27;;;;;;;11.83;11.23;;;5.60;99.90;;;;;;5134602;27;20546;-74
2021/03/14 06:57:08;;;;;;;11.60;11.10;;;5.70;99.90;;;;;;5134364;27;20847;-74
2021/03/14 06:59:37;;;;;;;11.13;10.73;;;5.80;99.90;;;;;;5134119;27;21021;-74
2021/03/14 07:02:05;;;;;;;10.47;10.10;;;5.80;99.90;;;;;;5134259;27;20443;-74
2021/03/14 07:04:40;;;;;;;10.40;10.00;;;5.80;99.90;;;;;;5132077;27;20510;-74
2021/03/14 07:07:11;;;;;;;10.40;10.00;;;5.80;99.90;;;;;;5134060;27;20754;-75
2021/03/14 07:09:38;;;;;;;10.67;9.97;;;5.90;99.90;;;;;;5133769;27;20447;-72
2021/03/14 07:12:16;;;;;;;10.23;9.70;;;6.10;99.90;;;;;;5133613;27;20534;-72
2021/03/14 07:14:43;;;;;;;11.57;10.60;;;6.30;99.90;;;;;;5133843;27;20455;-72
2021/03/14 07:17:10;;;;;;;9.50;9.10;;;6.40;99.90;;;;;;5133800;27;20453;-72
2021/03/14 07:19:38;;;;;;;11.03;10.53;;;6.50;99.90;;;;;;5133649;27;21012;-72
2021/03/14 07:22:06;;;;;;;10.47;10.07;;;6.50;99.90;;;;;;5133387;27;21029;-72
2021/03/14 07:24:34;;;;;;;10.80;10.27;;;6.60;99.90;;;;;;5133623;27;20452;-72
2021/03/14 07:27:03;;;;;;;11.97;11.27;;;6.70;99.90;;;;;;5133661;27;20475;-72
2021/03/14 07:29:30;;;;;;;11.50;10.90;;;6.50;99.90;;;;;;5133715;27;20504;-72
2021/03/14 07:31:58;;;;;;;10.93;10.03;;;6.50;99.90;;;;;;5133405;27;20485;-71
2021/03/14 07:34:25;;;;;;;10.10;9.57;;;6.60;99.90;;;;;;5133366;27;20471;-72
2021/03/14 07:36:52;;;;;;;11.23;10.30;;;6.70;99.90;;;;;;5133665;27;20461;-71
2021/03/14 07:39:18;;;;;;;11.00;10.33;;;7.00;99.90;;;;;;5133600;27;20448;-72
2021/03/14 07:41:46;;;;;;;11.10;10.40;;;6.90;99.90;;;;;;5125783;27;20449;-72
2021/03/14 07:44:13;;;;;;;11.13;10.17;;;7.10;99.90;;;;;;5113102;28;20442;-72
2021/03/14 07:46:41;;;;;;;10.60;9.90;;;7.50;99.90;;;;;;5112882;28;20453;-72
2021/03/14 07:49:12;;;;;;;9.70;9.30;;;8.00;99.90;;;;;;5112854;28;20449;-72
2021/03/14 07:51:39;;;;;;;11.27;10.77;;;8.60;99.90;;;;;;5112886;28;20539;-72
2021/03/14 07:54:08;;;;;;;11.27;10.77;;;8.80;99.90;;;;;;5112691;28;20481;-71
2021/03/14 07:56:37;;;;;;;10.73;10.30;;;8.50;99.90;;;;;;5112605;28;20445;-71
2021/03/14 07:59:04;;;;;;;10.20;9.80;;;8.40;99.90;;;;;;5112771;28;20457;-72
2021/03/14 08:01:32;;;;;;;10.97;10.37;;;8.00;99.90;;;;;;5112681;28;20442;-72
2021/03/14 08:03:59;;;;;;;10.70;10.10;;;8.00;99.90;;;;;;5112354;28;20470;-71
2021/03/14 08:06:49;;;;;;;10.17;9.70;;;7.50;99.90;;;;;;5112418;28;20495;-72
2021/03/14 08:09:41;;;;;;;9.33;8.83;;;7.30;99.90;;;;;;5112578;28;20528;-71
2021/03/14 08:12:25;;;;;;;9.70;9.20;;;7.30;99.90;;;;;;5112313;28;20452;-71
2021/03/14 08:14:56;;;;;;;10.20;9.80;;;7.00;99.90;;;;;;5116150;27;20476;-71
2021/03/14 08:17:23;;;;;;;9.87;9.40;;;7.00;99.90;;;;;;5122392;27;20460;-72
2021/03/14 08:19:51;;;;;;;10.73;9.60;;;7.10;99.90;;;;;;5112237;28;20966;-71
2021/03/14 08:22:43;;;;;;;10.70;10.20;;;7.30;99.90;;;;;;5118619;27;21031;-71
2021/03/14 08:25:18;;;;;;;9.60;9.10;;;7.70;99.90;;;;;;5132916;27;20441;-71
2021/03/14 08:27:46;;;;;;;9.70;9.40;;;7.90;99.90;;;;;;5132943;27;20449;-72
2021/03/14 08:30:27;;;;;;;10.43;9.87;;;8.20;99.90;;;;;;5131225;27;20544;-70
2021/03/14 08:33:29;;;;;;;10.00;9.50;;;8.60;99.90;;;;;;5111809;28;21025;-70
2021/03/14 08:35:58;;;;;;;8.73;8.33;;;8.70;99.90;;;;;;5112035;28;20514;-70
2021/03/14 08:38:34;;;;;;;9.40;8.90;;;9.00;99.90;;;;;;5112003;28;20445;-70
2021/03/14 08:41:19;;;;;;;9.83;9.40;;;9.30;99.90;;;;;;5113508;27;20452;-71
2021/03/14 08:43:47;;;;;;;11.30;10.80;;;10.00;99.90;;;;;;5132561;27;20471;-73
2021/03/14 08:46:14;;;;;;;10.83;10.43;;;11.10;99.90;;;;;;5132613;27;20452;-71
2021/03/14 08:48:40;;;;;;;12.10;11.60;;;12.00;96.10;;;;;;5119076;27;20904;-72
2021/03/14 08:51:08;;;;;;;11.17;10.20;;;12.80;94.60;;;;;;5111815;28;20448;-72
2021/03/14 08:53:36;;;;;;;10.93;10.30;;;12.60;94.10;;;;;;5111662;28;20482;-71
2021/03/14 08:56:03;;;;;;;10.70;10.00;;;11.70;95.40;;;;;;5111866;28;20445;-71
2021/03/14 08:58:29;;;;;;;10.90;10.30;;;11.60;96.40;;;;;;5111854;28;20441;-72
2021/03/14 09:01:04;;;;;;;9.73;9.43;;;11.20;97.10;;;;;;5112039;28;20951;-72
2021/03/14 09:03:31;;;;;;;10.20;9.70;;;11.20;97.20;;;;;;5112022;28;20441;-72
2021/03/14 09:06:26;;;;;;;10.30;9.60;;;10.60;97.40;;;;;;5112164;28;20454;-72
2021/03/14 09:08:57;;;;;;;9.80;9.50;;;10.00;97.10;;;;;;5111950;28;20453;-72
2021/03/14 09:11:42;;;;;;;10.33;9.83;;;9.70;97.70;;;;;;5111800;28;20494;-72
2021/03/14 09:14:31;;;;;;;9.37;8.97;;;9.70;99.90;;;;;;5111534;28;20484;-73
2021/03/14 09:16:59;;;;;;;10.00;9.50;;;9.60;98.80;;;;;;5113501;28;20498;-72
2021/03/14 09:19:32;;;;;;;9.40;9.00;;;9.50;98.50;;;;;;5116087;28;20502;-72
2021/03/14 09:22:00;;;;;;;9.33;8.93;;;9.70;98.50;;;;;;5122137;27;20483;-73
2021/03/14 09:24:31;;;;;;;9.70;9.30;;;9.80;98.90;;;;;;5136764;27;20449;-73
2021/03/14 09:26:59;;;;;;;8.67;8.37;;;9.80;99.30;;;;;;5136719;27;20454;-73
2021/03/14 09:29:43;;;;;;;9.50;9.20;;;10.50;98.20;;;;;;5136486;27;20444;-72
2021/03/14 09:32:30;;;;;;;9.53;9.13;;;10.80;95.10;;;;;;5136480;27;20447;-73
2021/03/14 09:35:17;;;;;;;9.50;9.10;;;10.90;95.60;;;;;;5136598;27;20452;-72
2021/03/14 09:37:45;;;;;;;8.67;8.37;;;10.70;95.90;;;;;;5136345;27;20503;-73
2021/03/14 09:40:27;;;;;;;10.40;9.50;;;10.60;95.50;;;;;;5136310;27;20452;-75
2021/03/14 09:43:05;;;;;;;8.83;8.53;;;10.70;95.20;;;;;;5118618;27;20437;-75
2021/03/14 09:45:32;;;;;;;10.60;10.10;;;12.10;94.50;;;;;;5115778;28;20445;-74
2021/03/14 09:48:05;;;;;;;10.27;9.57;;;14.30;92.00;;;;;;5115583;28;20452;-74
2021/03/14 09:50:34;;;;;;;9.60;9.20;;;14.30;87.20;;;;;;5115668;28;21141;-72
2021/03/14 09:53:02;;;;;;;10.10;9.70;;;14.90;87.00;;;;;;5115490;28;20539;-73
2021/03/14 09:55:31;;;;;;;9.80;9.30;;;15.20;82.40;;;;;;5115543;28;20445;-73
2021/03/14 09:57:58;;;;;;;9.57;9.10;;;14.70;81.40;;;;;;5115098;28;20947;-72
2021/03/14 10:00:26;;;;;;;9.53;9.13;;;13.30;81.00;;;;;;5114414;27;20511;-72
2021/03/14 10:02:52;;;;;;;10.43;9.90;;;12.00;89.20;;;;;;5114959;28;20487;-73
2021/03/14 10:05:19;;;;;;;9.20;8.70;;;11.10;90.70;;;;;;5114715;28;20457;-73
2021/03/14 10:07:50;;;;;;;8.97;8.67;;;10.70;92.00;;;;;;5114872;28;20445;-74
2021/03/14 10:10:17;;;;;;;9.83;9.13;;;10.60;91.10;;;;;;5114662;28;20476;-73
2021/03/14 10:12:44;;;;;;;9.23;8.90;;;10.50;92.80;;;;;;5114656;28;20485;-73
2021/03/14 10:15:15;;;;;;;9.33;8.93;;;10.50;92.70;;;;;;5114432;28;20445;-73
2021/03/14 10:17:42;;;;;;;9.70;9.20;;;10.30;93.80;;;;;;5114507;28;20477;-73
2021/03/14 10:20:10;;;;;;;10.30;9.90;;;10.50;94.00;;;;;;5114447;28;20444;-74
2021/03/14 10:22:37;;;;;;;10.07;9.37;;;10.60;95.00;;;;;;5114461;28;20541;-73
2021/03/14 10:25:03;;;;;;;9.13;8.63;;;10.20;94.30;;;;;;5114370;28;20457;-73
2021/03/14 10:27:30;;;;;;;9.10;8.70;;;10.20;93.60;;;;;;5114118;28;20457;-73
2021/03/14 10:29:58;;;;;;;9.60;9.00;;;9.80;95.80;;;;;;5114279;28;20802;-73
2021/03/14 10:32:28;;;;;;;9.50;8.90;;;9.50;96.40;;;;;;5114339;28;20908;-73
2021/03/14 10:34:56;;;;;;;7.90;7.57;;;9.60;97.00;;;;;;5114635;28;20917;-73
2021/03/14 10:37:31;;;;;;;8.87;8.47;;;9.90;96.80;;;;;;5114161;28;20480;-74
2021/03/14 10:40:03;;;;;;;9.40;9.10;;;10.30;96.10;;;;;;5114143;28;20457;-73
2021/03/14 10:42:35;;;;;;;10.13;9.73;;;10.60;94.60;;;;;;5128511;27;20800;-73
2021/03/14 10:45:06;;;;;;;9.57;9.20;;;10.70;94.10;;;;;;5134698;27;20445;-73
2021/03/14 10:47:33;;;;;;;9.20;8.80;;;10.70;94.20;;;;;;5134778;27;20458;-72
2021/03/14 10:50:18;;;;;;;9.87;9.43;;;10.90;93.70;;;;;;5134560;27;20444;-72
2021/03/14 10:52:45;;;;;;;7.80;7.53;;;10.80;92.80;;;;;;5134515;27;20491;-72
2021/03/14 10:55:30;;;;;;;9.97;9.40;;;10.80;92.60;;;;;;5134340;27;20452;-73
2021/03/14 10:58:07;;;;;;;9.37;8.97;;;10.80;93.40;;;;;;5134330;27;20860;-73
2021/03/14 11:00:36;;;;;;;10.80;10.20;;;10.70;92.60;;;;;;5134412;27;20467;-74
2021/03/14 11:03:11;;;;;;;8.47;8.07;;;10.80;92.90;;;;;;5134159;27;20492;-73
2021/03/14 11:05:38;;;;;;;9.50;9.20;;;11.30;91.80;;;;;;5134448;27;20491;-73
2021/03/14 11:08:05;;;;;;;9.40;9.00;;;11.90;91.20;;;;;;5134213;27;20504;-75
2021/03/14 11:10:32;;;;;;;9.10;8.73;;;12.60;90.30;;;;;;5134241;27;21185;-73
2021/03/14 11:12:58;;;;;;;9.50;9.00;;;12.90;89.10;;;;;;5133933;27;20480;-74
2021/03/14 11:15:27;;;;;;;11.03;10.40;;;14.10;85.80;;;;;;5134210;27;20437;-74
2021/03/14 11:17:56;;;;;;;10.17;9.67;;;14.00;82.40;;;;;;5134151;27;20758;-74
2021/03/14 11:20:25;;;;;;;10.00;9.50;;;13.30;83.00;;;;;;5134154;27;20531;-74
2021/03/14 11:22:52;;;;;;;9.40;9.10;;;12.00;84.60;;;;;;5133597;27;20870;-73
2021/03/14 11:25:20;;;;;;;10.20;9.60;;;11.60;87.20;;;;;;5133642;27;20524;-74
2021/03/14 11:27:46;;;;;;;11.17;10.67;;;11.40;86.70;;;;;;5133672;27;20437;-73
2021/03/14 11:30:13;;;;;;;9.53;9.03;;;10.40;86.50;;;;;;5133665;27;20501;-73
2021/03/14 11:32:40;;;;;;;9.13;8.83;;;10.20;87.00;;;;;;5133622;27;20491;-73
2021/03/14 11:35:08;;;;;;;11.20;10.60;;;10.10;88.30;;;;;;5133600;27;20509;-73
2021/03/14 11:37:34;;;;;;;9.30;8.90;;;10.10;88.50;;;;;;5133847;27;20471;-73
2021/03/14 11:40:00;;;;;;;9.87;9.27;;;10.40;89.00;;;;;;5132557;27;20455;-73
2021/03/14 11:42:27;;;;;;;9.90;9.30;;;10.40;88.40;;;;;;5120027;27;20513;-74
2021/03/14 11:44:55;;;;;;;9.63;9.20;;;10.60;88.80;;;;;;5112865;28;21007;-74
2021/03/14 11:47:22;;;;;;;9.70;9.10;;;10.80;85.50;;;;;;5112919;28;20521;-74
2021/03/14 11:49:48;;;;;;;9.80;9.20;;;11.00;84.70;;;;;;5112899;28;20935;-74
2021/03/14 11:52:15;;;;;;;9.43;9.03;;;11.10;86.00;;;;;;5112508;28;20504;-74
2021/03/14 11:54:41;;;;;;;9.90;9.40;;;11.20;85.10;;;;;;5112597;28;20992;-74
2021/03/14 11:57:08;;;;;;;9.97;9.37;;;10.80;85.90;;;;;;5112561;28;20461;-73
2021/03/14 11:59:34;;;;;;;8.80;8.40;;;10.60;86.10;;;;;;5112729;28;20445;-73
2021/03/14 12:02:00;;;;;;;10.20;9.50;;;10.20;85.70;;;;;;5112422;28;20506;-73
2021/03/14 12:04:27;;;;;;;9.30;9.00;;;10.20;87.40;;;;;;5112774;28;20456;-73
2021/03/14 12:06:53;;;;;;;8.43;8.13;;;10.40;87.10;;;;;;5112652;28;20456;-73
2021/03/14 12:09:20;;;;;;;9.70;9.10;;;10.30;87.60;;;;;;5112683;28;20461;-74
2021/03/14 12:11:46;;;;;;;8.87;8.47;;;10.10;88.10;;;;;;5112576;28;20456;-74
2021/03/14 12:14:13;;;;;;;9.23;8.80;;;10.10;89.20;;;;;;5112506;28;20542;-74
2021/03/14 12:16:39;;;;;;;9.30;8.80;;;10.00;88.70;;;;;;5112549;28;20510;-73
2021/03/14 12:19:06;;;;;;;10.43;9.93;;;10.00;90.00;;;;;;5112181;28;20456;-73
2021/03/14 12:21:32;;;;;;;8.50;8.17;;;9.90;90.50;;;;;;5112027;28;20551;-73
2021/03/14 12:23:58;;;;;;;8.83;8.53;;;9.70;91.10;;;;;;5112314;28;20455;-73
2021/03/14 12:26:26;;;;;;;8.27;7.97;;;9.70;91.40;;;;;;5112167;28;20449;-73
2021/03/14 12:28:53;;;;;;;8.20;7.90;;;9.40;91.90;;;;;;5112227;28;20487;-73
2021/03/14 12:31:20;;;;;;;7.67;7.37;;;9.50;93.30;;;;;;5112086;28;20953;-72
2021/03/14 12:33:47;;;;;;;8.90;8.40;;;9.50;93.90;;;;;;5111792;28;20488;-73
2021/03/14 12:36:13;;;;;;;8.97;8.07;;;9.20;94.30;;;;;;5112046;28;20906;-74
2021/03/14 12:38:40;;;;;;;9.60;8.73;;;9.20;95.30;;;;;;5112145;28;21069;-74
2021/03/14 12:41:06;;;;;;;9.33;8.83;;;9.20;95.80;;;;;;5114029;27;20445;-73
2021/03/14 12:43:33;;;;;;;9.73;9.23;;;8.90;97.20;;;;;;5132441;27;20509;-73
2021/03/14 12:45:59;;;;;;;11.60;10.90;;;8.60;99.90;;;;;;5132103;27;20459;-72
2021/03/14 12:48:25;;;;;;;13.30;12.60;;;8.20;99.90;;;;;;5132458;27;20448;-72